KSTL

St Louis Lambert International Airport

St Louis, Missouri, USA
METAR KSTL 191751Z 20006KT 10SM FEW060 SCT110 33/22 A2998 RMK AO2 SLP139 TCU DSNT N-NE ACC NW-N T03280222 10328 20233 58005
Observed Flight Rules
Sep-19 @ 17:51 UTC (56 minutes ago) Visual Flight Rules
Wind Visibility Clouds
200° at 6 knots 10 miles
  • Few at 6,000' AGL
  • Scattered at 11,000' AGL
Temperatures Readings
Current 33°C / 91°F
Dewpoint 22°C / 72°F
Humidity 52%
Altimeter 29.98" Hg
Pressure 1013.9 hPa
Elevation 171
METAR KSTL 191751Z 20006KT 10SM FEW060 SCT110 33/22 A2998 RMK AO2 SLP139 TCU DSNT N-NE ACC NW-N T03280222 10328 20233 58005
Observed Flight Rules
Sep-19 @ 17:51 UTC
(56 minutes ago)
VFR
Wind Visibility
200° at 6 knots 10 miles
Clouds
  • Few at 6,000' AGL
  • Scattered at 11,000' AGL
Temperature Dewpoint
33°C / 91°F 22°C / 72°F
Humidity Altimeter Pressure
52% 29.98" Hg 1013.9 hPa